createdAt,value
2019-05-16T00:00:58.617Z,2.00
2019-05-16T00:03:31.674Z,1.00
2019-05-16T00:06:05.456Z,1.00
2019-05-16T00:08:39.146Z,1.00
2019-05-16T00:11:13.519Z,2.00
2019-05-16T00:13:48.777Z,1.00
2019-05-16T00:16:22.808Z,1.25
2019-05-16T00:18:58.278Z,1.00
2019-05-16T00:21:31.898Z,1.00
2019-05-16T00:24:08.057Z,1.00
2019-05-16T00:26:41.846Z,2.00
2019-05-16T00:29:15.542Z,3.00
2019-05-16T00:31:49.259Z,1.20
2019-05-16T00:34:22.949Z,1.25
2019-05-16T00:36:58.222Z,1.50
2019-05-16T00:39:32.118Z,1.00
2019-05-16T00:42:05.818Z,2.00
2019-05-16T00:44:39.537Z,1.00
2019-05-16T00:47:13.573Z,1.00
2019-05-16T00:49:48.041Z,1.40
2019-05-16T00:52:21.860Z,2.00
2019-05-16T00:54:57.842Z,2.00
2019-05-16T00:57:31.127Z,2.50
2019-05-16T01:00:08.188Z,2.25
2019-05-16T01:02:41.643Z,1.75
2019-05-16T01:05:15.429Z,1.60
2019-05-16T01:07:49.505Z,1.80
2019-05-16T01:10:23.205Z,2.00
2019-05-16T01:12:58.464Z,2.00
2019-05-16T01:15:32.279Z,2.00
2019-05-16T01:18:08.087Z,1.25
2019-05-16T01:20:41.457Z,1.00
2019-05-16T01:23:15.164Z,2.00
2019-05-16T01:25:48.849Z,1.75
2019-05-16T01:28:22.553Z,2.00
2019-05-16T01:30:58.019Z,2.00
2019-05-16T01:33:31.704Z,2.00
2019-05-16T01:36:05.979Z,1.75
2019-05-16T01:38:40.233Z,2.00
2019-05-16T01:41:13.933Z,2.00
2019-05-16T01:43:48.298Z,1.50
2019-05-16T01:46:22.209Z,2.00
2019-05-16T01:48:57.817Z,1.00
2019-05-16T01:51:31.707Z,1.75
2019-05-16T01:54:05.767Z,1.00
2019-05-16T01:56:39.498Z,2.00
2019-05-16T01:59:13.784Z,1.80
2019-05-16T02:01:48.399Z,2.00
2019-05-16T02:04:22.860Z,1.25
2019-05-16T02:06:58.497Z,2.00
2019-05-16T02:09:32.150Z,2.00
2019-05-16T02:12:10.407Z,0.50
2019-05-16T02:14:41.268Z,2.50
2019-05-16T02:17:14.999Z,2.00
2019-05-16T02:19:48.742Z,2.00
2019-05-16T02:22:22.434Z,1.00
2019-05-16T02:24:58.347Z,2.00
2019-05-16T02:27:31.513Z,1.00
2019-05-16T02:30:05.291Z,2.00
2019-05-16T02:32:41.730Z,2.00
2019-05-16T02:35:14.402Z,1.00
2019-05-16T02:37:48.112Z,1.00
2019-05-16T02:40:22.928Z,2.00
2019-05-16T02:42:56.620Z,2.00
2019-05-16T02:45:32.509Z,1.00
2019-05-16T02:48:05.701Z,1.00
2019-05-16T02:50:41.497Z,2.00
2019-05-16T02:53:14.820Z,1.00
2019-05-16T02:55:51.361Z,1.00
2019-05-16T02:58:23.946Z,1.00
2019-05-16T03:00:57.622Z,1.00
2019-05-16T03:03:31.762Z,1.00
2019-05-16T03:06:05.865Z,1.75
2019-05-16T03:08:41.220Z,1.75
2019-05-16T03:11:15.156Z,2.00
2019-05-16T03:13:51.370Z,1.75
2019-05-16T03:16:24.766Z,1.50
2019-05-16T03:19:01.210Z,1.00
2019-05-16T03:21:34.107Z,2.00
2019-05-16T03:24:10.991Z,2.00
2019-05-16T03:26:43.252Z,1.00
2019-05-16T03:29:16.956Z,2.00
2019-05-16T03:31:54.207Z,2.00
2019-05-16T03:34:26.757Z,1.00
2019-05-16T03:37:04.093Z,2.00
2019-05-16T03:39:35.916Z,2.00
2019-05-16T03:42:12.469Z,2.00
2019-05-16T03:44:45.030Z,1.00
2019-05-16T03:47:21.682Z,1.25
2019-05-16T03:49:54.137Z,1.80
2019-05-16T03:52:30.789Z,2.00
2019-05-16T03:55:04.874Z,1.00
2019-05-16T03:57:41.434Z,1.00
2019-05-16T04:00:14.499Z,1.00
2019-05-16T04:02:52.046Z,2.00
2019-05-16T04:05:23.601Z,1.75
2019-05-16T04:08:13.828Z,3.00
2019-05-16T04:10:32.877Z,3.00
2019-05-16T04:13:06.566Z,2.00
2019-05-16T04:15:40.884Z,2.00
2019-05-16T04:18:14.822Z,2.00
2019-05-16T04:20:51.866Z,2.50
2019-05-16T04:23:23.950Z,2.00
2019-05-16T04:26:00.438Z,2.50
2019-05-16T04:28:33.044Z,2.00
2019-05-16T04:31:06.814Z,2.00
2019-05-16T04:33:41.477Z,2.50
2019-05-16T04:36:15.717Z,1.00
2019-05-16T04:38:51.196Z,2.00
2019-05-16T04:41:25.244Z,3.00
2019-05-16T04:44:01.535Z,2.00
2019-05-16T04:46:34.348Z,1.80
2019-05-16T04:49:11.260Z,2.00
2019-05-16T04:51:43.460Z,2.25
2019-05-16T04:54:17.194Z,1.80
2019-05-16T04:56:51.471Z,2.00
2019-05-16T04:59:25.375Z,2.00
2019-05-16T05:02:02.170Z,2.75
2019-05-16T05:04:34.501Z,2.00
2019-05-16T05:07:10.878Z,2.75
2019-05-16T05:09:43.601Z,1.75
2019-05-16T05:12:17.302Z,2.00
2019-05-16T05:14:51.251Z,2.00
2019-05-16T05:17:25.084Z,2.00
2019-05-16T05:20:01.165Z,2.00
2019-05-16T05:22:34.187Z,2.00
2019-05-16T05:25:10.629Z,2.00
2019-05-16T05:27:43.680Z,2.00
2019-05-16T05:30:19.627Z,1.75
2019-05-16T05:32:52.782Z,2.00
2019-05-16T05:35:26.501Z,2.20
2019-05-16T05:38:00.470Z,2.00
2019-05-16T05:40:34.300Z,5.00
2019-05-16T05:43:10.453Z,2.25
2019-05-16T05:45:43.397Z,2.00
2019-05-16T05:48:17.102Z,2.00
2019-05-16T05:50:51.194Z,2.00
2019-05-16T05:53:24.947Z,2.25
2019-05-16T05:56:00.369Z,2.00
2019-05-16T05:58:34.038Z,2.00
2019-05-16T06:01:07.787Z,1.00
2019-05-16T06:03:41.474Z,1.75
2019-05-16T06:06:15.210Z,1.25
2019-05-16T06:08:50.218Z,1.25
2019-05-16T06:11:24.204Z,2.00
2019-05-16T06:14:00.315Z,2.00
2019-05-16T06:16:33.314Z,1.00
2019-05-16T06:19:07.020Z,2.00
2019-05-16T06:21:44.818Z,1.20
2019-05-16T06:24:16.491Z,1.50
2019-05-16T06:26:50.591Z,2.00
2019-05-16T06:29:24.393Z,2.00
2019-05-16T06:32:00.093Z,2.00
2019-05-16T06:34:33.656Z,1.25
2019-05-16T06:37:09.690Z,1.00
2019-05-16T06:39:45.412Z,1.60
2019-05-16T06:42:20.461Z,1.25
2019-05-16T06:44:53.710Z,1.60
2019-05-16T06:47:27.424Z,1.00
2019-05-16T06:50:01.118Z,1.75
2019-05-16T06:52:34.822Z,2.00
2019-05-16T06:55:10.094Z,2.00
2019-05-16T06:57:44.299Z,0.25
2019-05-16T07:00:20.920Z,2.00
2019-05-16T07:02:55.051Z,1.00
2019-05-16T07:05:29.971Z,1.50
2019-05-16T07:08:03.725Z,1.00
2019-05-16T07:10:39.662Z,1.00
2019-05-16T07:13:13.898Z,1.00
2019-05-16T07:15:49.775Z,1.00
2019-05-16T07:18:23.093Z,1.00
2019-05-16T07:20:56.789Z,1.00
2019-05-16T07:23:30.483Z,1.25
2019-05-16T07:26:04.193Z,1.00
2019-05-16T07:28:40.426Z,2.00
2019-05-16T07:31:18.409Z,2.00
2019-05-16T07:33:50.244Z,1.00
2019-05-16T07:36:24.115Z,1.00
2019-05-16T07:38:59.781Z,1.50
2019-05-16T07:41:33.213Z,2.00
2019-05-16T07:44:06.893Z,1.00
2019-05-16T07:46:44.481Z,1.00
2019-05-16T07:49:16.014Z,1.50
2019-05-16T07:51:49.920Z,1.40
2019-05-16T07:54:23.726Z,2.00
2019-05-16T07:57:09.697Z,2.00
2019-05-16T07:59:32.893Z,2.00
2019-05-16T08:02:06.580Z,2.00
2019-05-16T08:04:40.613Z,1.25
2019-05-16T08:07:14.453Z,1.00
2019-05-16T08:09:50.315Z,1.00
2019-05-16T08:12:26.374Z,1.00
2019-05-16T08:15:00.729Z,1.00
2019-05-16T08:17:34.394Z,2.00
2019-05-16T08:20:10.863Z,2.00
2019-05-16T08:22:43.864Z,1.00
2019-05-16T08:25:20.121Z,2.00
2019-05-16T08:27:52.978Z,2.00
2019-05-16T08:30:26.660Z,2.00
2019-05-16T08:33:02.515Z,2.50
2019-05-16T08:35:35.837Z,1.20
2019-05-16T08:38:13.295Z,2.00
2019-05-16T08:41:04.783Z,2.00
2019-05-16T08:43:21.715Z,2.00
2019-05-16T08:45:55.893Z,1.40
2019-05-16T08:48:31.818Z,1.25
2019-05-16T08:51:05.082Z,2.00
2019-05-16T08:53:43.248Z,2.00
2019-05-16T08:56:14.196Z,1.00
2019-05-16T08:58:53.338Z,1.00
2019-05-16T09:01:23.326Z,1.00
2019-05-16T09:03:57.023Z,2.00
2019-05-16T09:06:32.036Z,1.75
2019-05-16T09:09:26.482Z,1.25
2019-05-16T09:11:45.140Z,2.00
2019-05-16T09:14:17.539Z,2.00
2019-05-16T09:16:51.206Z,2.00
2019-05-16T09:19:27.375Z,1.75
2019-05-16T09:22:00.316Z,1.25
2019-05-16T09:24:34.010Z,2.00
2019-05-16T09:27:12.058Z,2.00
2019-05-16T09:29:43.145Z,2.00
2019-05-16T09:32:21.201Z,1.25
2019-05-16T09:34:52.248Z,2.00
2019-05-16T09:37:26.780Z,1.00
2019-05-16T09:40:00.605Z,2.00
2019-05-16T09:42:37.034Z,1.00
2019-05-16T09:45:10.152Z,2.00
2019-05-16T09:47:43.835Z,2.25
2019-05-16T09:50:17.585Z,2.00
2019-05-16T09:52:51.342Z,1.00
2019-05-16T09:55:26.819Z,1.25
2019-05-16T09:58:00.662Z,2.00
2019-05-16T10:00:37.174Z,2.25
2019-05-16T10:03:09.810Z,2.00
2019-05-16T10:05:43.580Z,2.50
2019-05-16T10:08:17.578Z,2.40
2019-05-16T10:10:51.329Z,1.00
2019-05-16T10:13:27.505Z,2.75
2019-05-16T10:16:00.370Z,4.00
2019-05-16T10:18:34.073Z,3.00
2019-05-16T10:21:08.287Z,2.00
2019-05-16T10:23:42.066Z,2.50
2019-05-16T10:26:17.278Z,2.50
2019-05-16T10:28:51.183Z,2.60
2019-05-16T10:31:38.537Z,3.00
2019-05-16T10:34:00.272Z,3.00
2019-05-16T10:36:33.959Z,2.00
2019-05-16T10:39:07.963Z,3.00
2019-05-16T10:41:41.727Z,2.75
2019-05-16T10:44:17.480Z,3.00
2019-05-16T10:46:51.127Z,3.00
2019-05-16T10:49:34.268Z,2.50
2019-05-16T10:52:00.229Z,2.60
2019-05-16T10:54:33.947Z,3.00
2019-05-16T10:57:08.295Z,3.00
2019-05-16T11:00:09.094Z,2.50
2019-05-16T11:02:18.698Z,3.00
2019-05-16T11:04:59.953Z,2.60
2019-05-16T11:07:29.795Z,2.25
2019-05-16T11:10:06.894Z,2.25
2019-05-16T11:12:50.099Z,2.40
2019-05-16T11:15:17.174Z,3.00
2019-05-16T11:17:51.137Z,3.25
2019-05-16T11:20:26.746Z,2.00
2019-05-16T11:23:00.236Z,2.75
2019-05-16T11:25:36.518Z,2.00
2019-05-16T11:28:09.336Z,2.00
2019-05-16T11:30:43.051Z,2.00
2019-05-16T11:33:17.353Z,2.60
2019-05-16T11:35:51.343Z,2.00
2019-05-16T11:38:25.050Z,3.00
2019-05-16T11:40:58.762Z,3.00
2019-05-16T11:43:32.454Z,3.00
2019-05-16T11:46:06.220Z,2.25
2019-05-16T11:48:39.925Z,3.00
2019-05-16T11:51:13.960Z,3.00
2019-05-16T11:53:47.836Z,2.00
2019-05-16T11:56:21.566Z,2.75
2019-05-16T11:58:57.053Z,2.00
2019-05-16T12:01:30.681Z,2.00
2019-05-16T12:04:04.372Z,2.25
2019-05-16T12:06:38.073Z,3.00
2019-05-16T12:09:12.976Z,3.00
2019-05-16T12:11:46.682Z,2.00
2019-05-16T12:14:20.410Z,3.00
2019-05-16T12:16:56.810Z,4.00
2019-05-16T12:19:34.668Z,4.00
2019-05-16T12:22:07.026Z,4.25
2019-05-16T12:24:41.497Z,3.75
2019-05-16T12:27:17.183Z,3.75
2019-05-16T12:29:55.334Z,4.00
2019-05-16T12:32:27.667Z,7.00
2019-05-16T12:35:01.537Z,8.00
2019-05-16T12:37:37.278Z,7.75
2019-05-16T12:40:10.647Z,5.25
2019-05-16T12:42:44.362Z,8.00
2019-05-16T12:45:18.081Z,6.67
2019-05-16T12:47:51.805Z,7.50
2019-05-16T12:50:28.414Z,9.00
2019-05-16T12:53:02.556Z,3.00
2019-05-16T12:55:36.828Z,7.00
2019-05-16T12:58:13.125Z,4.25
2019-05-16T13:00:54.000Z,3.75
2019-05-16T13:03:21.475Z,3.00
2019-05-16T13:05:57.097Z,4.00
2019-05-16T13:08:30.585Z,3.75
2019-05-16T13:11:06.816Z,3.00
2019-05-16T13:13:39.675Z,4.75
2019-05-16T13:16:13.443Z,3.25
2019-05-16T13:18:47.546Z,4.00
2019-05-16T13:21:22.836Z,3.00
2019-05-16T13:23:57.536Z,4.50
2019-05-16T13:26:31.490Z,3.00
2019-05-16T13:29:07.252Z,2.00
2019-05-16T13:31:40.593Z,4.00
2019-05-16T13:34:17.675Z,3.50
2019-05-16T13:36:49.697Z,5.50
2019-05-16T13:39:23.391Z,6.00
2019-05-16T13:41:57.104Z,3.00
2019-05-16T13:44:30.795Z,4.00
2019-05-16T13:47:04.506Z,6.00
2019-05-16T13:49:38.891Z,5.60
2019-05-16T13:52:13.508Z,5.60
2019-05-16T13:54:47.610Z,6.25
2019-05-16T13:57:21.322Z,6.25
2019-05-16T13:59:56.778Z,6.00
2019-05-16T14:02:30.611Z,6.00
2019-05-16T14:05:07.586Z,5.60
2019-05-16T14:07:41.450Z,6.00
2019-05-16T14:10:17.866Z,6.00
2019-05-16T14:12:50.602Z,7.00
2019-05-16T14:15:26.923Z,7.00
2019-05-16T14:17:59.694Z,6.50
2019-05-16T14:20:33.412Z,7.80
2019-05-16T14:23:08.452Z,6.25
2019-05-16T14:25:42.961Z,6.50
2019-05-16T14:28:17.554Z,6.25
2019-05-16T14:30:51.550Z,7.25
2019-05-16T14:33:27.480Z,7.00
2019-05-16T14:36:00.689Z,6.00
2019-05-16T14:38:34.396Z,6.25
2019-05-16T14:41:08.382Z,6.25
2019-05-16T14:43:42.180Z,6.00
2019-05-16T14:46:18.310Z,7.75
2019-05-16T14:48:51.368Z,8.00
2019-05-16T14:51:29.370Z,8.25
2019-05-16T14:54:00.480Z,9.00
2019-05-16T14:56:34.363Z,6.75
2019-05-16T14:59:08.381Z,8.75
2019-05-16T15:01:42.327Z,9.00
2019-05-16T15:04:16.048Z,8.25
2019-05-16T15:06:49.769Z,8.40
2019-05-16T15:09:23.969Z,9.00
2019-05-16T15:11:58.272Z,7.20
2019-05-16T15:14:32.058Z,7.00
2019-05-16T15:17:07.035Z,7.60
2019-05-16T15:19:40.959Z,7.00
2019-05-16T15:22:16.795Z,7.00
2019-05-16T15:24:50.103Z,7.25
2019-05-16T15:27:23.802Z,6.60
2019-05-16T15:29:57.842Z,6.00
2019-05-16T15:32:32.001Z,7.80
2019-05-16T15:35:07.416Z,7.00
2019-05-16T15:37:41.361Z,6.75
2019-05-16T15:40:17.485Z,7.00
2019-05-16T15:42:50.443Z,8.50
2019-05-16T15:45:37.932Z,7.00
2019-05-16T15:48:09.393Z,7.00
2019-05-16T15:50:43.099Z,8.00
2019-05-16T15:53:17.680Z,7.00
2019-05-16T15:55:51.499Z,7.00
2019-05-16T15:58:26.713Z,6.00
2019-05-16T16:01:00.703Z,8.00
2019-05-16T16:03:34.424Z,8.00
2019-05-16T16:06:08.172Z,8.60
2019-05-16T16:08:41.989Z,7.00
2019-05-16T16:11:17.165Z,7.25
2019-05-16T16:13:51.192Z,6.00
2019-05-16T16:16:26.779Z,8.00
2019-05-16T16:19:01.218Z,8.00
2019-05-16T16:21:34.941Z,6.20
2019-05-16T16:24:09.272Z,6.75
2019-05-16T16:26:43.359Z,7.25
2019-05-16T16:29:17.115Z,7.40
2019-05-16T16:31:50.794Z,7.75
2019-05-16T16:34:26.647Z,9.50
2019-05-16T16:36:59.948Z,7.50
2019-05-16T16:39:34.673Z,6.75
2019-05-16T16:42:08.414Z,8.00
2019-05-16T16:44:42.215Z,7.20
2019-05-16T16:47:17.649Z,9.00
2019-05-16T16:49:51.608Z,8.00
2019-05-16T16:52:27.371Z,7.00
2019-05-16T16:55:00.726Z,7.75
2019-05-16T16:57:34.438Z,8.50
2019-05-16T17:00:08.967Z,8.20
2019-05-16T17:02:58.362Z,7.75
2019-05-16T17:05:18.097Z,7.80
2019-05-16T17:07:51.825Z,7.00
2019-05-16T17:10:27.528Z,7.00
2019-05-16T17:13:02.161Z,8.75
2019-05-16T17:15:36.706Z,9.75
2019-05-16T17:18:10.834Z,8.00
2019-05-16T17:20:44.568Z,7.75
2019-05-16T17:23:18.256Z,9.40
2019-05-16T17:25:52.003Z,10.25
2019-05-16T17:28:25.744Z,8.00
2019-05-16T17:30:59.580Z,8.60
2019-05-16T17:33:33.308Z,9.40
2019-05-16T17:36:09.219Z,9.50
2019-05-16T17:38:42.533Z,11.50
2019-05-16T17:41:16.864Z,9.20
2019-05-16T17:43:51.029Z,11.00
2019-05-16T17:46:34.799Z,8.75
2019-05-16T17:49:00.205Z,8.25
2019-05-16T17:51:33.940Z,8.25
2019-05-16T17:54:07.654Z,8.25
2019-05-16T17:56:41.371Z,9.00
2019-05-16T17:59:17.015Z,9.50
2019-05-16T18:01:50.620Z,11.50
2019-05-16T18:04:26.519Z,10.60
2019-05-16T18:06:59.884Z,9.50
2019-05-16T18:09:33.627Z,11.00
2019-05-16T18:12:07.351Z,9.00
2019-05-16T18:14:41.073Z,8.25
2019-05-16T18:17:14.880Z,12.00
2019-05-16T18:19:48.590Z,7.50
2019-05-16T18:22:22.361Z,9.00
2019-05-16T18:24:57.865Z,10.50
2019-05-16T18:27:31.742Z,8.00
2019-05-16T18:30:08.340Z,10.50
2019-05-16T18:32:42.098Z,9.50
2019-05-16T18:35:16.862Z,9.00
2019-05-16T18:37:50.785Z,11.00
2019-05-16T18:40:27.012Z,12.00
2019-05-16T18:42:59.995Z,11.25
2019-05-16T18:45:33.731Z,11.00
2019-05-16T18:48:07.746Z,12.00
2019-05-16T18:50:41.753Z,11.75
2019-05-16T18:53:17.664Z,12.75
2019-05-16T18:55:50.883Z,11.50
2019-05-16T18:58:26.824Z,13.00
2019-05-16T19:01:00.044Z,16.00
2019-05-16T19:03:33.765Z,15.25
2019-05-16T19:06:07.855Z,14.20
2019-05-16T19:08:42.367Z,18.50
2019-05-16T19:11:17.518Z,17.60
2019-05-16T19:13:51.534Z,13.80
2019-05-16T19:16:26.265Z,11.50
2019-05-16T19:19:00.165Z,16.00
2019-05-16T19:21:33.949Z,14.50
2019-05-16T19:24:07.696Z,14.60
2019-05-16T19:26:41.523Z,17.00
2019-05-16T19:29:17.157Z,18.25
2019-05-16T19:31:50.752Z,16.40
2019-05-16T19:34:24.556Z,16.00
2019-05-16T19:36:58.931Z,18.25
2019-05-16T19:39:32.657Z,16.60
2019-05-16T19:42:06.541Z,22.50
2019-05-16T19:44:40.421Z,16.00
2019-05-16T19:47:14.184Z,18.75
2019-05-16T19:49:47.919Z,19.00
2019-05-16T19:52:21.651Z,21.00
2019-05-16T19:54:56.458Z,18.00
2019-05-16T19:57:30.373Z,17.25
2019-05-16T20:00:08.349Z,17.00
2019-05-16T20:02:42.086Z,18.00
2019-05-16T20:05:17.034Z,19.20
2019-05-16T20:07:51.049Z,18.50
2019-05-16T20:10:26.969Z,21.50
2019-05-16T20:13:00.582Z,17.25
2019-05-16T20:15:36.393Z,18.50
2019-05-16T20:18:09.708Z,17.75
2019-05-16T20:20:43.425Z,16.00
2019-05-16T20:23:18.640Z,18.00
2019-05-16T20:25:52.762Z,18.00
2019-05-16T20:28:26.779Z,16.50
2019-05-16T20:31:00.704Z,16.25
2019-05-16T20:33:34.620Z,17.00
2019-05-16T20:36:09.453Z,16.25
2019-05-16T20:38:43.490Z,15.50
2019-05-16T20:41:17.288Z,14.40
2019-05-16T20:43:51.010Z,13.75
2019-05-16T20:46:24.745Z,17.00
2019-05-16T20:48:59.071Z,13.00
2019-05-16T20:51:32.831Z,16.75
2019-05-16T20:54:07.115Z,16.25
2019-05-16T20:56:40.926Z,15.60
2019-05-16T20:59:14.634Z,18.00
2019-05-16T21:01:49.216Z,16.25
2019-05-16T21:04:23.269Z,16.40
2019-05-16T21:07:04.614Z,13.50
2019-05-16T21:09:32.371Z,18.50
2019-05-16T21:12:08.085Z,16.20
2019-05-16T21:14:41.502Z,14.00
2019-05-16T21:17:17.270Z,16.75
2019-05-16T21:19:51.763Z,17.25
2019-05-16T21:22:27.370Z,16.25
2019-05-16T21:25:00.859Z,15.50
2019-05-16T21:27:37.541Z,16.00
2019-05-16T21:30:09.989Z,17.60
2019-05-16T21:32:43.712Z,18.00
2019-05-16T21:35:17.412Z,16.20
2019-05-16T21:37:51.125Z,17.00
2019-05-16T21:40:26.536Z,17.50
2019-05-16T21:43:00.439Z,17.00
2019-05-16T21:45:34.155Z,16.00
2019-05-16T21:48:07.869Z,15.50
2019-05-16T21:50:41.578Z,17.00
2019-05-16T21:53:17.574Z,18.00
2019-05-16T21:55:50.697Z,15.25
2019-05-16T21:58:26.686Z,17.25
2019-05-16T22:00:59.823Z,16.25
2019-05-16T22:03:33.544Z,16.25
2019-05-16T22:06:07.975Z,18.40
2019-05-16T22:08:42.055Z,17.00
2019-05-16T22:11:17.236Z,17.50
2019-05-16T22:13:51.188Z,15.00
2019-05-16T22:16:24.928Z,16.50
2019-05-16T22:18:59.218Z,17.00
2019-05-16T22:21:32.939Z,15.00
2019-05-16T22:24:06.773Z,17.50
2019-05-16T22:26:40.528Z,16.00
2019-05-16T22:29:14.252Z,18.40
2019-05-16T22:31:47.946Z,16.75
2019-05-16T22:34:21.674Z,16.75
2019-05-16T22:36:57.266Z,16.50
2019-05-16T22:39:30.884Z,17.25
2019-05-16T22:42:06.406Z,18.25
2019-05-16T22:44:40.002Z,18.00
2019-05-16T22:47:13.701Z,16.75
2019-05-16T22:49:47.676Z,19.80
2019-05-16T22:52:21.425Z,16.00
2019-05-16T22:54:56.711Z,19.75
2019-05-16T22:57:30.539Z,18.25
2019-05-16T23:00:07.696Z,17.40
2019-05-16T23:02:41.416Z,18.60
2019-05-16T23:05:16.841Z,18.75
2019-05-16T23:08:02.151Z,17.50
2019-05-16T23:10:28.478Z,18.00
2019-05-16T23:13:02.165Z,17.50
2019-05-16T23:15:35.903Z,16.00
2019-05-16T23:18:09.623Z,17.80
2019-05-16T23:20:43.353Z,15.50
2019-05-16T23:23:17.516Z,17.50
2019-05-16T23:25:51.333Z,16.00
2019-05-16T23:28:27.195Z,16.50
2019-05-16T23:31:00.800Z,17.50
2019-05-16T23:33:36.590Z,16.50
2019-05-16T23:36:09.959Z,15.50
2019-05-16T23:38:43.673Z,13.25
2019-05-16T23:41:17.471Z,16.75
2019-05-16T23:43:51.180Z,16.00
2019-05-16T23:46:24.878Z,15.75
2019-05-16T23:48:58.597Z,16.00
2019-05-16T23:51:32.308Z,13.25
2019-05-16T23:54:06.645Z,15.75
2019-05-16T23:56:40.692Z,16.25
